Time;durP1;ratioP1;P1;durP2;ratioP2;P2;SDS_P1;SDS_P2;PMS_P1;PMS_P2;Temp;Humidity;BMP_temperature;BMP_pressure;BME280_temperature;BME280_humidity;BME280_pressure;Samples;Min_cycle;Max_cycle;Signal;HPM_P1;HPM_P2
2023/06/03 00:00:28;;;;;;;13.60;4.57;;;12.20;99.90;;;;;;5017061;28;20045;-56
2023/06/03 00:02:56;;;;;;;22.98;3.58;;;12.20;99.90;;;;;;5032878;28;20053;-59
2023/06/03 00:05:23;;;;;;;13.77;3.72;;;12.10;99.90;;;;;;5042734;28;20041;-59
2023/06/03 00:07:50;;;;;;;20.00;3.58;;;12.10;99.90;;;;;;5030045;28;20045;-60
2023/06/03 00:10:17;;;;;;;20.33;3.30;;;12.10;99.90;;;;;;5042676;28;20045;-59
2023/06/03 00:12:45;;;;;;;18.38;4.22;;;12.10;99.90;;;;;;5013243;28;20492;-60
2023/06/03 00:15:12;;;;;;;18.40;3.92;;;12.10;99.90;;;;;;5037801;28;20048;-60
2023/06/03 00:17:39;;;;;;;15.75;3.60;;;12.00;99.90;;;;;;5042899;28;20048;-60
2023/06/03 00:20:06;;;;;;;13.02;2.90;;;12.00;99.90;;;;;;5039692;28;20049;-60
2023/06/03 00:22:37;;;;;;;17.73;3.25;;;11.90;99.90;;;;;;5034125;28;20053;-58
2023/06/03 00:25:07;;;;;;;18.23;3.35;;;11.90;99.90;;;;;;5039323;28;20045;-60
2023/06/03 00:27:34;;;;;;;22.23;3.15;;;11.90;99.90;;;;;;5036008;28;20060;-59
2023/06/03 00:30:02;;;;;;;17.50;3.03;;;11.90;99.90;;;;;;5038023;28;20041;-59
2023/06/03 00:32:29;;;;;;;19.55;3.63;;;11.90;99.90;;;;;;5041900;28;20056;-58
2023/06/03 00:34:56;;;;;;;13.80;3.00;;;11.80;99.90;;;;;;5038554;28;20488;-60
2023/06/03 00:37:23;;;;;;;19.30;3.42;;;11.80;99.90;;;;;;5036898;28;20558;-59
2023/06/03 00:39:50;;;;;;;15.60;2.75;;;11.80;99.90;;;;;;5038594;28;20054;-60
2023/06/03 00:42:17;;;;;;;17.45;3.33;;;11.80;99.90;;;;;;5036597;28;20128;-59
2023/06/03 00:44:43;;;;;;;12.43;2.80;;;11.70;99.90;;;;;;5040409;28;20177;-59
2023/06/03 00:47:10;;;;;;;16.40;2.80;;;11.70;99.90;;;;;;5040725;28;20052;-60
2023/06/03 00:49:37;;;;;;;21.13;4.00;;;11.70;99.90;;;;;;5015124;28;20208;-59
2023/06/03 00:52:05;;;;;;;20.60;3.60;;;11.70;99.90;;;;;;5024629;28;20508;-59
2023/06/03 00:54:31;;;;;;;19.92;3.58;;;11.60;99.90;;;;;;5031252;28;20056;-59
2023/06/03 00:56:58;;;;;;;17.83;4.18;;;11.60;99.90;;;;;;5023949;28;20064;-59
2023/06/03 00:59:25;;;;;;;15.80;3.55;;;11.50;99.90;;;;;;4680954;28;10000610;-58
2023/06/03 01:01:52;;;;;;;13.70;3.47;;;11.60;99.90;;;;;;5043417;28;20407;-61
2023/06/03 01:04:25;;;;;;;11.93;3.38;;;11.60;99.90;;;;;;5014536;28;20080;-59
2023/06/03 01:07:28;;;;;;;22.20;3.53;;;11.50;99.90;;;;;;5042135;28;20080;-64
2023/06/03 01:10:19;;;;;;;13.88;3.40;;;11.50;99.90;;;;;;5029721;28;20053;-59
2023/06/03 01:12:51;;;;;;;15.55;3.55;;;11.50;99.90;;;;;;5026316;28;20056;-60
2023/06/03 01:15:23;;;;;;;15.70;3.42;;;11.50;99.90;;;;;;5031492;28;20051;-60
2023/06/03 01:17:51;;;;;;;23.25;4.00;;;11.40;99.90;;;;;;5026256;28;20069;-60
2023/06/03 01:20:18;;;;;;;15.90;3.67;;;11.40;99.90;;;;;;5012342;28;20124;-59
2023/06/03 01:22:46;;;;;;;22.63;4.18;;;11.40;99.90;;;;;;5043375;28;20056;-59
2023/06/03 01:25:15;;;;;;;27.95;6.13;;;11.30;99.90;;;;;;5027080;28;20046;-59
2023/06/03 01:27:45;;;;;;;15.70;3.17;;;11.30;99.90;;;;;;5015146;28;20137;-60
2023/06/03 01:30:13;;;;;;;17.88;4.68;;;11.20;99.90;;;;;;5043460;28;20087;-58
2023/06/03 01:32:41;;;;;;;21.60;3.78;;;11.10;99.90;;;;;;5024919;28;20045;-59
2023/06/03 01:35:09;;;;;;;23.95;4.40;;;11.00;99.90;;;;;;5014868;28;20691;-59
2023/06/03 01:37:36;;;;;;;17.67;4.13;;;11.10;99.90;;;;;;5021628;28;20064;-59
2023/06/03 01:40:04;;;;;;;13.70;3.40;;;11.00;99.90;;;;;;5016497;28;20046;-59
2023/06/03 01:42:31;;;;;;;20.08;4.57;;;10.90;99.90;;;;;;5020205;28;20072;-59
2023/06/03 01:44:58;;;;;;;23.33;4.40;;;10.90;99.90;;;;;;5035679;28;20321;-59
2023/06/03 01:47:25;;;;;;;15.57;4.32;;;10.90;99.90;;;;;;5017783;28;20053;-58
2023/06/03 01:49:52;;;;;;;17.98;5.13;;;10.90;99.90;;;;;;5035931;28;20052;-58
2023/06/03 01:52:19;;;;;;;19.83;3.97;;;10.90;99.90;;;;;;5038167;28;20049;-60
2023/06/03 01:54:46;;;;;;;21.38;4.53;;;10.90;99.90;;;;;;5039867;28;20484;-59
2023/06/03 01:57:13;;;;;;;28.42;4.63;;;10.90;99.90;;;;;;5043093;28;20049;-57
2023/06/03 01:59:40;;;;;;;22.17;4.32;;;10.90;99.90;;;;;;5038858;28;20094;-59
2023/06/03 02:02:07;;;;;;;17.48;3.53;;;10.90;99.90;;;;;;5044849;28;20050;-59
2023/06/03 02:04:34;;;;;;;15.90;3.65;;;10.80;99.90;;;;;;5036667;28;20450;-59
2023/06/03 02:07:00;;;;;;;25.05;4.75;;;10.70;99.90;;;;;;5046917;28;20496;-60
2023/06/03 02:09:28;;;;;;;18.88;3.22;;;10.80;99.90;;;;;;5034751;28;20436;-59
2023/06/03 02:11:55;;;;;;;20.45;3.92;;;10.80;99.90;;;;;;5032296;28;20041;-60
2023/06/03 02:14:23;;;;;;;19.48;4.00;;;10.80;99.90;;;;;;5028684;28;20033;-59
2023/06/03 02:16:50;;;;;;;17.05;3.63;;;10.80;99.90;;;;;;5016741;28;20049;-58
2023/06/03 02:19:20;;;;;;;17.42;3.97;;;10.90;99.90;;;;;;5044375;28;20045;-60
2023/06/03 02:21:47;;;;;;;13.60;4.10;;;10.90;99.90;;;;;;5036462;28;20045;-59
2023/06/03 02:24:17;;;;;;;20.83;5.03;;;10.80;99.90;;;;;;5044471;28;20064;-60
2023/06/03 02:26:49;;;;;;;25.80;4.00;;;10.80;99.90;;;;;;5037483;28;20500;-60
2023/06/03 02:29:18;;;;;;;15.85;3.65;;;10.80;99.90;;;;;;5039171;28;20496;-60
2023/06/03 02:31:45;;;;;;;20.33;7.13;;;10.80;99.90;;;;;;5036416;28;20046;-60
2023/06/03 02:34:12;;;;;;;22.73;5.05;;;10.80;99.90;;;;;;5024022;28;20049;-59
2023/06/03 02:36:39;;;;;;;18.95;3.88;;;10.80;99.90;;;;;;5024239;28;20086;-59
2023/06/03 02:39:09;;;;;;;23.02;4.10;;;10.80;99.90;;;;;;5040868;28;20310;-61
2023/06/03 02:41:36;;;;;;;17.10;3.42;;;10.70;99.90;;;;;;5041077;28;20432;-60
2023/06/03 02:44:03;;;;;;;14.45;3.80;;;10.70;99.90;;;;;;5044301;28;20033;-59
2023/06/03 02:46:30;;;;;;;21.70;4.50;;;10.70;99.90;;;;;;5041816;28;20071;-59
2023/06/03 02:48:57;;;;;;;15.57;3.38;;;10.70;99.90;;;;;;5026101;28;20053;-58
2023/06/03 02:51:24;;;;;;;14.77;4.22;;;10.60;99.90;;;;;;5040852;28;20053;-57
2023/06/03 02:53:51;;;;;;;17.98;4.28;;;10.60;99.90;;;;;;5046155;28;20045;-60
2023/06/03 02:56:18;;;;;;;15.75;3.88;;;10.50;99.90;;;;;;5045274;28;20389;-59
2023/06/03 02:58:45;;;;;;;20.92;5.18;;;10.50;99.90;;;;;;5047352;28;20056;-59
2023/06/03 03:01:12;;;;;;;21.48;4.25;;;10.50;99.90;;;;;;5039532;28;20045;-59
2023/06/03 03:03:40;;;;;;;18.10;4.43;;;10.40;99.90;;;;;;5033594;28;20050;-59
2023/06/03 03:06:08;;;;;;;17.33;3.45;;;10.40;99.90;;;;;;5048889;28;20037;-59
2023/06/03 03:08:35;;;;;;;19.77;3.63;;;10.40;99.90;;;;;;5034998;28;20041;-58
2023/06/03 03:11:02;;;;;;;13.70;3.70;;;10.40;99.90;;;;;;5040332;28;20037;-59
2023/06/03 03:13:30;;;;;;;13.57;2.92;;;10.40;99.90;;;;;;5035710;28;20065;-58
2023/06/03 03:15:57;;;;;;;14.15;3.30;;;10.40;99.90;;;;;;5040124;28;20037;-57
2023/06/03 03:18:24;;;;;;;28.33;4.80;;;10.50;99.90;;;;;;5044129;28;20049;-56
2023/06/03 03:20:51;;;;;;;18.85;3.60;;;10.50;99.90;;;;;;5040049;28;20061;-58
2023/06/03 03:23:18;;;;;;;18.60;3.47;;;10.40;99.90;;;;;;5038331;28;20053;-58
2023/06/03 03:25:45;;;;;;;23.88;5.18;;;10.40;99.90;;;;;;5003918;28;20041;-59
2023/06/03 03:28:12;;;;;;;20.02;4.15;;;10.40;99.90;;;;;;5039159;28;20057;-60
2023/06/03 03:30:39;;;;;;;19.85;3.70;;;10.50;99.90;;;;;;5044764;28;20068;-58
2023/06/03 03:33:06;;;;;;;15.35;3.88;;;10.40;99.90;;;;;;5038956;28;20485;-58
2023/06/03 03:35:39;;;;;;;23.23;4.10;;;10.50;99.90;;;;;;5046287;28;20577;-60
2023/06/03 03:38:07;;;;;;;20.20;4.53;;;10.40;99.90;;;;;;5040402;28;20106;-61
2023/06/03 03:40:36;;;;;;;19.17;5.22;;;10.40;99.90;;;;;;5031583;28;20104;-59
2023/06/03 03:43:03;;;;;;;14.40;4.10;;;10.40;99.90;;;;;;5036719;28;20049;-59
2023/06/03 03:45:33;;;;;;;15.73;3.35;;;10.40;99.90;;;;;;5045365;28;20393;-57
2023/06/03 03:48:03;;;;;;;14.15;3.72;;;10.40;99.90;;;;;;5025200;28;20507;-58
2023/06/03 03:50:40;;;;;;;16.45;3.85;;;10.40;99.90;;;;;;5032857;28;20057;-59
2023/06/03 03:53:24;;;;;;;23.33;3.55;;;10.40;99.90;;;;;;5042408;28;20053;-59
2023/06/03 03:55:52;;;;;;;21.17;3.15;;;10.50;99.90;;;;;;5033628;28;20053;-59
2023/06/03 03:58:27;;;;;;;27.48;3.78;;;10.60;99.90;;;;;;5034307;28;20053;-59
2023/06/03 04:00:59;;;;;;;16.13;4.15;;;10.70;99.90;;;;;;5044276;28;20045;-59
2023/06/03 04:03:26;;;;;;;18.85;3.67;;;10.70;99.90;;;;;;5042830;28;20053;-59
2023/06/03 04:05:53;;;;;;;14.23;5.03;;;10.60;99.90;;;;;;5043568;28;20041;-59
2023/06/03 04:08:27;;;;;;;19.55;3.95;;;10.70;99.90;;;;;;5034490;28;20053;-59
2023/06/03 04:10:58;;;;;;;18.58;4.38;;;10.70;99.90;;;;;;5024945;28;20041;-58
2023/06/03 04:13:25;;;;;;;15.70;4.40;;;10.70;99.90;;;;;;5026258;28;20408;-59
2023/06/03 04:15:52;;;;;;;20.70;5.07;;;10.80;99.90;;;;;;5017037;28;20048;-58
2023/06/03 04:18:19;;;;;;;25.17;5.07;;;10.80;99.90;;;;;;5015819;28;20064;-58
2023/06/03 04:20:48;;;;;;;17.80;4.40;;;10.90;99.90;;;;;;5039813;28;20096;-57
2023/06/03 04:23:17;;;;;;;16.13;4.43;;;10.90;99.90;;;;;;5040894;28;20492;-59
2023/06/03 04:25:44;;;;;;;23.98;4.85;;;10.90;99.90;;;;;;5021540;28;20053;-59
2023/06/03 04:28:11;;;;;;;17.75;6.10;;;10.90;99.90;;;;;;5035723;28;20420;-59
2023/06/03 04:30:38;;;;;;;22.00;4.65;;;10.90;99.90;;;;;;5018800;28;20053;-59
2023/06/03 04:33:06;;;;;;;30.90;6.55;;;10.90;99.90;;;;;;5038137;28;20053;-58
2023/06/03 04:35:33;;;;;;;24.60;4.80;;;10.90;99.90;;;;;;5034623;28;20045;-58
2023/06/03 04:37:59;;;;;;;18.38;5.00;;;10.90;99.90;;;;;;5037680;28;20504;-59
2023/06/03 04:40:29;;;;;;;23.38;5.15;;;10.90;99.90;;;;;;5033525;28;20041;-58
2023/06/03 04:42:56;;;;;;;13.40;4.35;;;10.90;99.90;;;;;;5035379;28;20045;-59
2023/06/03 04:45:23;;;;;;;25.30;4.90;;;11.00;99.90;;;;;;5034092;28;20037;-58
2023/06/03 04:47:52;;;;;;;15.27;4.63;;;11.00;99.90;;;;;;5034864;28;20053;-59
2023/06/03 04:50:20;;;;;;;22.75;4.88;;;11.00;99.90;;;;;;5033755;28;20033;-58
2023/06/03 04:52:47;;;;;;;17.33;5.35;;;11.10;99.90;;;;;;5015677;28;20332;-58
2023/06/03 04:55:14;;;;;;;15.90;4.75;;;11.10;99.90;;;;;;5040737;28;20053;-56
2023/06/03 04:57:41;;;;;;;20.17;6.30;;;11.10;99.90;;;;;;5030605;28;20099;-58
2023/06/03 05:00:09;;;;;;;16.90;5.20;;;11.10;99.90;;;;;;5042690;28;20381;-58
2023/06/03 05:02:36;;;;;;;19.33;5.32;;;11.20;99.90;;;;;;5028660;28;20699;-58
2023/06/03 05:05:03;;;;;;;22.35;5.38;;;11.20;99.90;;;;;;5042250;28;20152;-59
2023/06/03 05:07:31;;;;;;;21.30;5.70;;;11.20;99.90;;;;;;5045016;28;20053;-59
2023/06/03 05:09:58;;;;;;;30.63;6.35;;;11.10;99.90;;;;;;5032105;28;20099;-59
2023/06/03 05:12:26;;;;;;;26.15;6.30;;;11.20;99.90;;;;;;5027907;28;20052;-59
2023/06/03 05:14:52;;;;;;;19.15;6.47;;;11.30;99.90;;;;;;5038651;28;20471;-57
2023/06/03 05:17:19;;;;;;;26.73;7.20;;;11.40;99.90;;;;;;5044492;28;20056;-59
2023/06/03 05:19:46;;;;;;;29.85;6.57;;;11.50;99.90;;;;;;5035109;28;20053;-59
2023/06/03 05:22:13;;;;;;;22.77;5.80;;;11.40;99.90;;;;;;5029176;28;20085;-59
2023/06/03 05:24:40;;;;;;;23.33;5.85;;;11.40;99.90;;;;;;5034936;28;20057;-59
2023/06/03 05:27:07;;;;;;;22.35;6.30;;;11.30;99.90;;;;;;5033337;28;20045;-63
2023/06/03 05:29:34;;;;;;;28.48;6.07;;;11.40;99.90;;;;;;5040656;28;20041;-59
2023/06/03 05:32:01;;;;;;;25.27;5.55;;;11.40;99.90;;;;;;5032904;28;20423;-59
2023/06/03 05:34:28;;;;;;;25.92;6.57;;;11.40;99.90;;;;;;5037840;28;20048;-59
2023/06/03 05:36:55;;;;;;;26.42;6.78;;;11.50;99.90;;;;;;4999503;28;1129563;-59
2023/06/03 05:39:22;;;;;;;37.33;7.30;;;11.40;99.90;;;;;;5026969;28;20056;-60
2023/06/03 05:41:49;;;;;;;24.17;7.47;;;11.50;99.90;;;;;;5025411;28;20052;-59
2023/06/03 05:44:16;;;;;;;27.23;7.07;;;11.40;99.90;;;;;;5017606;28;20050;-59
2023/06/03 05:46:42;;;;;;;23.38;6.13;;;11.50;99.90;;;;;;5037771;28;20049;-60
2023/06/03 05:49:09;;;;;;;25.38;6.30;;;11.50;99.90;;;;;;5035082;28;20049;-59
2023/06/03 05:51:36;;;;;;;22.13;6.80;;;11.60;99.90;;;;;;5043037;28;20404;-60
2023/06/03 05:54:04;;;;;;;23.73;6.40;;;11.60;99.90;;;;;;5016871;28;20132;-60
2023/06/03 05:56:31;;;;;;;18.70;5.72;;;11.60;99.90;;;;;;5020496;28;20045;-60
2023/06/03 05:58:58;;;;;;;21.73;7.07;;;11.60;99.90;;;;;;5045242;28;20423;-59
2023/06/03 06:01:25;;;;;;;21.92;7.60;;;11.70;99.90;;;;;;5042247;28;20514;-59
2023/06/03 06:03:52;;;;;;;18.70;6.43;;;11.80;99.90;;;;;;5037410;28;20555;-59
2023/06/03 06:06:20;;;;;;;22.35;5.88;;;11.80;99.90;;;;;;5041223;28;20044;-58
2023/06/03 06:08:47;;;;;;;22.52;7.28;;;11.80;99.90;;;;;;5042369;28;20049;-58
2023/06/03 06:11:14;;;;;;;22.02;7.05;;;11.80;99.90;;;;;;5038079;28;20061;-59
2023/06/03 06:13:41;;;;;;;19.10;6.65;;;11.80;99.90;;;;;;5041743;28;20069;-61
2023/06/03 06:16:08;;;;;;;23.10;6.63;;;11.80;99.90;;;;;;5039667;28;20049;-59
2023/06/03 06:18:35;;;;;;;20.60;6.53;;;11.80;99.90;;;;;;5039677;28;20049;-60
2023/06/03 06:21:02;;;;;;;20.13;6.43;;;11.80;99.90;;;;;;5042456;28;20133;-60
2023/06/03 06:23:30;;;;;;;16.67;5.65;;;11.90;99.90;;;;;;5042138;28;20053;-60
2023/06/03 06:25:57;;;;;;;17.83;7.10;;;12.00;99.90;;;;;;5035798;28;20037;-59
2023/06/03 06:28:27;;;;;;;20.95;6.57;;;12.00;99.90;;;;;;5036749;28;20115;-60
2023/06/03 06:30:54;;;;;;;18.80;6.45;;;12.00;99.90;;;;;;5047734;28;20535;-59
2023/06/03 06:33:21;;;;;;;23.30;8.20;;;12.10;99.90;;;;;;5026905;28;20064;-60
2023/06/03 06:35:48;;;;;;;23.88;7.70;;;12.20;99.90;;;;;;5014951;28;20042;-59
2023/06/03 06:38:15;;;;;;;21.00;7.88;;;12.20;99.90;;;;;;5042670;28;20098;-62
2023/06/03 06:40:43;;;;;;;22.05;6.75;;;12.30;99.90;;;;;;5032449;28;20514;-59
2023/06/03 06:43:12;;;;;;;19.52;8.02;;;12.30;99.90;;;;;;5043957;28;20480;-59
2023/06/03 06:45:39;;;;;;;20.35;6.65;;;12.30;99.90;;;;;;5034460;28;20637;-60
2023/06/03 06:48:08;;;;;;;24.17;7.15;;;12.40;99.90;;;;;;5033355;28;20052;-60
2023/06/03 06:50:45;;;;;;;27.67;8.23;;;12.40;99.90;;;;;;5027075;28;20068;-59
2023/06/03 06:53:12;;;;;;;16.35;6.82;;;12.40;99.90;;;;;;5044113;28;20131;-58
2023/06/03 06:55:55;;;;;;;19.40;6.43;;;12.40;99.90;;;;;;5035949;28;20067;-61
2023/06/03 06:58:22;;;;;;;18.90;5.90;;;12.50;99.90;;;;;;5046799;28;20290;-60
2023/06/03 07:00:49;;;;;;;19.92;6.18;;;12.50;99.90;;;;;;5027466;28;20524;-60
2023/06/03 07:03:18;;;;;;;23.95;7.20;;;12.60;99.90;;;;;;5040574;28;20045;-60
2023/06/03 07:05:52;;;;;;;19.80;6.32;;;12.60;99.90;;;;;;5037468;28;20493;-60
2023/06/03 07:08:22;;;;;;;15.48;6.40;;;12.60;99.90;;;;;;5037120;28;20070;-60
2023/06/03 07:10:50;;;;;;;34.45;9.02;;;12.70;99.90;;;;;;5040819;28;20060;-63
2023/06/03 07:13:17;;;;;;;22.08;6.32;;;12.70;99.90;;;;;;5040354;28;20045;-61
2023/06/03 07:15:47;;;;;;;24.23;6.05;;;12.70;99.90;;;;;;5043603;28;20049;-59
2023/06/03 07:18:14;;;;;;;22.05;6.63;;;12.60;99.90;;;;;;5039641;28;20053;-60
2023/06/03 07:20:42;;;;;;;21.88;5.78;;;12.70;99.90;;;;;;5041324;28;20499;-60
2023/06/03 07:23:11;;;;;;;25.30;5.93;;;12.90;99.90;;;;;;5041562;28;20041;-59
2023/06/03 07:25:43;;;;;;;21.23;6.65;;;12.80;99.90;;;;;;5033951;28;20049;-60
2023/06/03 07:28:11;;;;;;;15.10;4.78;;;12.90;99.90;;;;;;4689927;28;10000421;-60
2023/06/03 07:30:38;;;;;;;16.63;5.53;;;13.00;99.90;;;;;;5033702;28;20044;-61
2023/06/03 07:33:06;;;;;;;17.02;5.00;;;13.10;99.90;;;;;;5035382;28;20099;-60
2023/06/03 07:35:34;;;;;;;13.68;4.90;;;13.20;99.90;;;;;;5031210;28;20053;-60
2023/06/03 07:38:05;;;;;;;20.08;6.68;;;13.30;99.90;;;;;;5039653;28;20056;-60
2023/06/03 07:40:41;;;;;;;20.83;5.88;;;13.30;99.90;;;;;;5025219;28;20067;-60
2023/06/03 07:43:08;;;;;;;19.88;5.90;;;13.40;99.90;;;;;;5036540;28;20049;-60
2023/06/03 07:45:36;;;;;;;15.98;5.40;;;13.50;99.90;;;;;;5033466;28;20397;-62
2023/06/03 07:48:03;;;;;;;18.67;5.43;;;13.50;99.90;;;;;;5043452;28;20102;-60
2023/06/03 07:50:30;;;;;;;21.70;5.50;;;13.50;99.90;;;;;;5018811;28;20104;-60
2023/06/03 07:53:02;;;;;;;15.13;4.90;;;13.60;99.90;;;;;;5038331;28;20055;-60
2023/06/03 07:55:43;;;;;;;18.20;5.63;;;13.70;99.90;;;;;;5029703;28;20140;-60
2023/06/03 07:58:11;;;;;;;18.70;5.55;;;13.70;99.90;;;;;;5030029;28;20045;-58
2023/06/03 08:00:45;;;;;;;16.63;5.43;;;13.80;99.90;;;;;;5012409;28;20053;-60
2023/06/03 08:03:14;;;;;;;18.15;5.38;;;13.80;99.90;;;;;;5028713;28;20085;-60
2023/06/03 08:05:42;;;;;;;25.75;6.13;;;13.90;99.90;;;;;;5020011;28;20061;-60
2023/06/03 08:08:10;;;;;;;20.33;5.13;;;14.00;99.90;;;;;;5043004;28;20052;-60
2023/06/03 08:10:37;;;;;;;12.77;4.72;;;14.00;99.90;;;;;;5032642;28;20393;-60
2023/06/03 08:13:05;;;;;;;19.20;5.43;;;14.00;99.90;;;;;;5025670;28;20049;-60
2023/06/03 08:15:35;;;;;;;18.42;6.15;;;14.00;99.90;;;;;;5033664;28;20053;-60
2023/06/03 08:18:06;;;;;;;23.67;8.23;;;14.10;99.90;;;;;;5026018;28;20053;-59
2023/06/03 08:20:34;;;;;;;15.48;5.22;;;14.20;99.90;;;;;;5017606;28;20479;-60
2023/06/03 08:23:01;;;;;;;19.63;5.82;;;14.30;99.90;;;;;;5026846;28;20328;-60
2023/06/03 08:25:28;;;;;;;18.08;6.97;;;14.30;99.90;;;;;;5015913;28;20048;-59
2023/06/03 08:27:55;;;;;;;13.77;4.75;;;14.40;99.90;;;;;;5038579;28;20045;-60
2023/06/03 08:30:22;;;;;;;14.45;4.97;;;14.40;99.90;;;;;;5038019;28;20045;-60
2023/06/03 08:32:49;;;;;;;15.18;5.30;;;14.50;99.90;;;;;;5031105;28;20045;-59
2023/06/03 08:35:19;;;;;;;22.15;4.90;;;14.50;99.90;;;;;;5031477;28;20478;-61
2023/06/03 08:37:46;;;;;;;19.52;5.65;;;14.60;99.90;;;;;;5034261;28;20129;-60
2023/06/03 08:40:14;;;;;;;15.57;5.22;;;14.70;99.90;;;;;;5003371;28;20056;-61
2023/06/03 08:42:45;;;;;;;26.67;6.72;;;14.80;99.90;;;;;;5034379;28;20312;-60
2023/06/03 08:45:13;;;;;;;15.50;5.25;;;14.90;99.90;;;;;;5028289;28;20080;-61
2023/06/03 08:47:46;;;;;;;15.77;5.38;;;15.00;99.90;;;;;;5033074;28;20057;-61
2023/06/03 08:50:13;;;;;;;16.10;5.22;;;15.10;99.90;;;;;;5039338;28;20052;-59
2023/06/03 08:52:40;;;;;;;12.90;4.85;;;15.20;99.90;;;;;;5004861;28;20049;-62
2023/06/03 08:55:07;;;;;;;27.33;5.45;;;15.20;99.90;;;;;;5025244;28;20050;-58
2023/06/03 08:57:35;;;;;;;13.57;4.38;;;15.20;99.90;;;;;;5018743;28;20110;-60
2023/06/03 09:00:02;;;;;;;16.73;5.28;;;15.30;99.90;;;;;;5029514;28;20085;-60
2023/06/03 09:02:29;;;;;;;16.10;5.25;;;15.30;99.90;;;;;;5002371;28;20128;-60
2023/06/03 09:04:56;;;;;;;17.73;5.05;;;15.40;99.90;;;;;;5013292;28;20060;-60
2023/06/03 09:07:24;;;;;;;16.58;4.10;;;15.40;99.90;;;;;;5016689;28;20055;-60
2023/06/03 09:09:51;;;;;;;20.75;5.72;;;15.40;99.90;;;;;;5018132;28;20049;-60
2023/06/03 09:12:18;;;;;;;13.35;4.47;;;15.40;99.90;;;;;;5015514;28;20049;-60
2023/06/03 09:14:44;;;;;;;17.55;4.60;;;15.50;99.90;;;;;;5035386;28;20053;-60
2023/06/03 09:17:11;;;;;;;19.23;4.95;;;15.50;99.90;;;;;;5016459;28;20041;-60
2023/06/03 09:19:39;;;;;;;20.00;5.72;;;15.60;99.90;;;;;;5014822;28;20057;-60
2023/06/03 09:22:06;;;;;;;19.60;4.80;;;15.60;99.90;;;;;;5032218;28;20058;-61
2023/06/03 09:24:33;;;;;;;14.77;5.05;;;15.70;99.90;;;;;;5040018;28;20135;-60
2023/06/03 09:27:00;;;;;;;16.80;4.65;;;15.90;99.90;;;;;;5036845;28;20049;-61
2023/06/03 09:29:26;;;;;;;11.32;4.05;;;16.00;99.90;;;;;;5036841;28;20110;-60
2023/06/03 09:31:53;;;;;;;13.38;3.72;;;16.20;99.90;;;;;;5037025;28;20057;-60
2023/06/03 09:34:22;;;;;;;12.63;4.38;;;16.30;99.90;;;;;;5037623;28;20053;-60
2023/06/03 09:36:49;;;;;;;17.20;4.10;;;16.30;99.90;;;;;;5025924;28;20056;-61
2023/06/03 09:39:17;;;;;;;12.35;4.05;;;16.40;99.90;;;;;;5035800;28;20106;-60
2023/06/03 09:41:45;;;;;;;16.25;4.15;;;16.40;99.90;;;;;;5009107;28;20040;-61
2023/06/03 09:44:12;;;;;;;18.50;5.05;;;16.50;99.90;;;;;;5030388;28;20080;-60
2023/06/03 09:46:39;;;;;;;16.98;3.90;;;16.60;99.90;;;;;;5038340;28;20052;-60
2023/06/03 09:49:19;;;;;;;12.20;5.22;;;16.60;99.90;;;;;;5037539;28;20056;-61
2023/06/03 09:52:11;;;;;;;17.38;5.15;;;16.80;99.90;;;;;;5026433;28;20585;-61
2023/06/03 09:54:37;;;;;;;19.75;4.97;;;16.90;99.90;;;;;;5028788;28;20097;-61
2023/06/03 09:57:12;;;;;;;13.50;4.38;;;17.00;99.90;;;;;;5039775;28;20065;-60
2023/06/03 09:59:45;;;;;;;16.35;4.30;;;17.00;99.90;;;;;;5037905;28;20123;-60
2023/06/03 10:02:12;;;;;;;15.70;4.30;;;17.10;99.90;;;;;;5029706;28;20053;-60
2023/06/03 10:04:41;;;;;;;15.18;4.07;;;17.30;99.90;;;;;;5036570;28;20053;-60
2023/06/03 10:07:12;;;;;;;16.85;4.32;;;17.40;99.90;;;;;;5028005;28;20061;-62
2023/06/03 10:09:41;;;;;;;15.40;4.18;;;17.40;99.90;;;;;;5028691;28;20041;-59
2023/06/03 10:12:10;;;;;;;17.25;4.63;;;17.50;99.90;;;;;;5013326;28;20057;-59
2023/06/03 10:14:44;;;;;;;14.32;4.28;;;17.60;99.90;;;;;;5022379;28;20312;-60
2023/06/03 10:17:12;;;;;;;18.75;4.88;;;17.80;99.90;;;;;;5035008;28;20479;-61
2023/06/03 10:19:40;;;;;;;11.77;4.00;;;18.20;99.90;;;;;;5040835;28;20126;-60
2023/06/03 10:22:08;;;;;;;12.95;4.22;;;18.20;99.90;;;;;;5019558;28;20061;-60
2023/06/03 10:24:38;;;;;;;15.60;3.40;;;18.30;99.90;;;;;;5042692;28;20049;-60
2023/06/03 10:27:05;;;;;;;14.18;3.50;;;18.30;99.90;;;;;;5038414;28;20122;-59
2023/06/03 10:29:32;;;;;;;19.15;5.95;;;18.40;99.90;;;;;;5047636;28;20060;-60
2023/06/03 10:32:00;;;;;;;20.40;5.68;;;18.40;99.90;;;;;;5043951;28;20041;-61
2023/06/03 10:34:28;;;;;;;16.33;4.15;;;18.30;99.90;;;;;;5035068;28;20058;-60
2023/06/03 10:36:57;;;;;;;19.92;4.70;;;18.40;99.90;;;;;;5041552;28;20504;-60
2023/06/03 10:39:25;;;;;;;11.25;3.75;;;18.80;99.90;;;;;;5035378;28;20053;-60
2023/06/03 10:41:54;;;;;;;15.30;3.75;;;18.90;99.90;;;;;;5040687;28;20076;-61
2023/06/03 10:44:21;;;;;;;12.85;4.30;;;19.20;99.90;;;;;;5024910;28;20045;-61
2023/06/03 10:47:06;;;;;;;20.33;3.85;;;19.50;99.90;;;;;;5038794;28;20054;-62
2023/06/03 10:49:47;;;;;;;7.57;2.90;;;19.70;99.90;;;;;;5039508;28;20071;-61
2023/06/03 10:52:55;;;;;;;13.70;4.57;;;19.70;99.90;;;;;;5024356;28;20499;-61
2023/06/03 10:55:41;;;;;;;16.75;4.00;;;19.90;99.90;;;;;;5013838;28;20045;-61
2023/06/03 10:58:18;;;;;;;21.90;4.55;;;20.00;99.90;;;;;;5035027;28;20049;-60
2023/06/03 11:01:01;;;;;;;14.57;3.80;;;20.20;99.90;;;;;;5019458;28;20080;-60
2023/06/03 11:03:52;;;;;;;17.38;4.68;;;20.30;99.90;;;;;;5033949;28;20050;-60
2023/06/03 11:06:21;;;;;;;15.57;4.10;;;20.30;99.90;;;;;;5026436;28;20045;-60
2023/06/03 11:09:08;;;;;;;15.88;4.07;;;20.20;99.90;;;;;;5035386;28;20045;-61
2023/06/03 11:11:41;;;;;;;16.67;4.75;;;19.80;99.90;;;;;;5033867;28;20052;-60
2023/06/03 11:14:09;;;;;;;10.15;3.58;;;19.90;99.90;;;;;;5031736;28;20085;-60
2023/06/03 11:16:58;;;;;;;14.55;4.00;;;20.00;99.90;;;;;;5033875;28;20308;-60
2023/06/03 11:19:35;;;;;;;12.40;4.13;;;19.90;99.90;;;;;;5030016;28;20047;-61
2023/06/03 11:22:04;;;;;;;12.60;3.70;;;19.90;99.90;;;;;;5033833;28;20081;-60
2023/06/03 11:24:37;;;;;;;13.07;3.63;;;19.90;99.90;;;;;;5043200;28;20073;-60
2023/06/03 11:27:11;;;;;;;15.80;3.67;;;19.90;99.90;;;;;;5049705;28;20067;-61
2023/06/03 11:29:44;;;;;;;10.48;3.58;;;19.80;99.90;;;;;;5036182;28;20045;-62
2023/06/03 11:32:24;;;;;;;14.55;3.88;;;20.00;99.90;;;;;;5038574;28;20054;-61
2023/06/03 11:35:05;;;;;;;17.42;3.70;;;20.20;99.90;;;;;;5027596;28;20126;-61
2023/06/03 11:37:52;;;;;;;13.63;3.60;;;20.50;99.90;;;;;;4689556;28;9999989;-61
2023/06/03 11:40:20;;;;;;;11.35;3.03;;;20.70;99.90;;;;;;5007976;28;20154;-61
2023/06/03 11:42:47;;;;;;;9.88;3.17;;;20.70;99.90;;;;;;5029704;28;20180;-61
2023/06/03 11:45:29;;;;;;;10.95;3.72;;;20.90;99.90;;;;;;5031094;28;20056;-62
2023/06/03 11:48:05;;;;;;;15.20;3.63;;;21.00;99.90;;;;;;5030897;28;20055;-59
2023/06/03 11:50:48;;;;;;;16.95;5.60;;;21.00;99.90;;;;;;5039675;28;20061;-60
2023/06/03 11:53:30;;;;;;;23.55;4.95;;;21.10;99.90;;;;;;5039958;28;20132;-61
2023/06/03 11:56:02;;;;;;;14.65;3.70;;;21.30;99.90;;;;;;5029377;28;20051;-59
2023/06/03 11:58:29;;;;;;;19.55;5.03;;;21.20;99.90;;;;;;5039164;28;20053;-59
2023/06/03 12:01:10;;;;;;;11.20;4.05;;;21.10;99.90;;;;;;5012678;28;20610;-60
2023/06/03 12:03:37;;;;;;;11.40;3.33;;;20.90;99.90;;;;;;5028296;28;20119;-60
2023/06/03 12:06:05;;;;;;;11.60;4.00;;;20.70;99.90;;;;;;5027251;28;20512;-65
2023/06/03 12:08:46;;;;;;;20.35;4.20;;;20.60;99.90;;;;;;5036744;28;20057;-60
2023/06/03 12:11:26;;;;;;;17.08;4.07;;;20.40;99.90;;;;;;5030536;28;20049;-60
2023/06/03 12:13:53;;;;;;;11.93;4.22;;;20.40;99.90;;;;;;5026974;28;20042;-59
2023/06/03 12:16:33;;;;;;;14.65;4.38;;;20.40;99.90;;;;;;5039575;28;20458;-59
2023/06/03 12:19:03;;;;;;;17.30;3.80;;;20.40;99.90;;;;;;5040255;28;20041;-59
2023/06/03 12:21:34;;;;;;;15.85;4.20;;;20.40;99.90;;;;;;5030826;28;20061;-60
2023/06/03 12:24:11;;;;;;;15.38;3.13;;;20.50;99.90;;;;;;5029762;28;20521;-61
2023/06/03 12:26:40;;;;;;;10.77;3.08;;;20.60;99.90;;;;;;5041775;28;20048;-65
2023/06/03 12:29:10;;;;;;;14.52;3.90;;;20.80;99.90;;;;;;5039758;28;20515;-60
2023/06/03 12:31:38;;;;;;;8.50;3.10;;;21.00;99.90;;;;;;5028461;28;20115;-61
2023/06/03 12:34:05;;;;;;;11.60;3.17;;;21.10;99.90;;;;;;5029240;28;20095;-61
2023/06/03 12:36:48;;;;;;;12.15;2.80;;;21.10;99.90;;;;;;5016585;28;20191;-62
2023/06/03 12:39:17;;;;;;;7.05;3.13;;;21.10;99.90;;;;;;5039508;28;20246;-61
2023/06/03 12:41:52;;;;;;;10.57;3.33;;;21.30;99.90;;;;;;5034591;28;20061;-62
2023/06/03 12:44:19;;;;;;;13.90;4.30;;;21.50;99.90;;;;;;5030500;28;20041;-60
2023/06/03 12:47:02;;;;;;;11.73;3.67;;;21.60;99.90;;;;;;5033854;28;20095;-61